Time;durP1;ratioP1;P1;durP2;ratioP2;P2;SDS_P1;SDS_P2;PMS_P1;PMS_P2;Temp;Humidity;BMP_temperature;BMP_pressure;BME280_temperature;BME280_humidity;BME280_pressure;Samples;Min_cycle;Max_cycle;Signal;HPM_P1;HPM_P2
2023/02/28 00:03:35;;;;;;;9.15;5.25;;;-2.10;99.90;;;;;;20906340;28;20424;-65
2023/02/28 00:13:41;;;;;;;10.63;5.22;;;-2.10;99.90;;;;;;20905359;28;20045;-60
2023/02/28 00:23:42;;;;;;;10.70;5.22;;;-2.10;99.90;;;;;;20904672;28;20029;-66
2023/02/28 00:33:44;;;;;;;11.52;6.47;;;-2.20;99.90;;;;;;20904559;28;20043;-66
2023/02/28 00:43:45;;;;;;;13.18;6.65;;;-2.20;99.90;;;;;;20903638;28;20040;-60
2023/02/28 00:53:47;;;;;;;11.63;6.00;;;-2.30;99.90;;;;;;20903501;28;20429;-66
2023/02/28 01:03:48;;;;;;;9.82;5.88;;;-2.40;99.90;;;;;;20902618;28;20114;-65
2023/02/28 01:13:50;;;;;;;12.02;6.32;;;-2.40;99.90;;;;;;20903002;28;20461;-67
2023/02/28 01:23:52;;;;;;;13.00;6.55;;;-2.40;99.90;;;;;;20902205;28;20390;-66
2023/02/28 01:33:55;;;;;;;11.57;6.05;;;-2.40;99.90;;;;;;20900630;28;20098;-66
2023/02/28 01:44:26;;;;;;;13.48;6.18;;;-2.50;99.90;;;;;;20899970;28;20136;-59
2023/02/28 01:54:31;;;;;;;13.63;6.95;;;-2.60;99.90;;;;;;20913172;28;20033;-60
2023/02/28 02:04:38;;;;;;;12.80;6.65;;;-2.70;99.90;;;;;;20917138;28;20492;-66
2023/02/28 02:15:28;;;;;;;14.35;7.75;;;-2.70;99.90;;;;;;20914898;28;20041;-60
2023/02/28 02:25:48;;;;;;;14.85;8.00;;;-2.70;99.90;;;;;;20906580;28;20045;-67
2023/02/28 02:36:16;;;;;;;15.50;8.67;;;-2.80;99.90;;;;;;20912947;28;20474;-67
2023/02/28 02:46:27;;;;;;;16.90;8.40;;;-2.90;99.90;;;;;;20738683;28;20081;-59
2023/02/28 02:56:31;;;;;;;18.10;9.57;;;-3.10;99.90;;;;;;20721600;28;20042;-59
2023/02/28 03:06:34;;;;;;;16.55;8.48;;;-3.10;99.90;;;;;;20736093;28;20100;-66
2023/02/28 03:16:37;;;;;;;15.55;8.55;;;-3.00;99.90;;;;;;20759603;28;20140;-66
2023/02/28 03:26:44;;;;;;;20.08;10.15;;;-3.00;99.90;;;;;;20907822;28;20029;-59
2023/02/28 03:36:53;;;;;;;19.90;10.13;;;-3.00;99.90;;;;;;20907938;28;20043;-60
2023/02/28 03:47:15;;;;;;;16.98;9.02;;;-2.90;99.90;;;;;;20907731;28;20045;-59
2023/02/28 03:57:50;;;;;;;16.20;9.05;;;-3.00;99.90;;;;;;20907005;28;20055;-60
2023/02/28 04:07:52;;;;;;;19.50;9.80;;;-3.20;99.90;;;;;;20905850;28;20469;-65
2023/02/28 04:17:54;;;;;;;18.85;9.68;;;-3.40;99.90;;;;;;20905369;28;20114;-66
2023/02/28 04:27:56;;;;;;;19.63;9.45;;;-3.70;99.90;;;;;;20904592;28;20029;-66
2023/02/28 04:37:57;;;;;;;19.35;9.40;;;-4.20;99.90;;;;;;20904185;28;20178;-60
2023/02/28 04:47:59;;;;;;;27.10;11.02;;;-4.40;99.90;;;;;;20903849;28;20033;-66
2023/02/28 04:58:00;;;;;;;27.05;11.77;;;-4.60;99.90;;;;;;20903652;28;20040;-66
2023/02/28 05:08:02;;;;;;;24.83;12.07;;;-4.70;99.90;;;;;;20901789;28;20094;-60
2023/02/28 05:18:03;;;;;;;24.08;10.93;;;-4.60;99.90;;;;;;20902537;28;20045;-66
2023/02/28 05:28:06;;;;;;;29.40;12.93;;;-4.80;99.90;;;;;;20912379;28;20040;-66
2023/02/28 05:38:08;;;;;;;23.02;10.95;;;-4.70;99.90;;;;;;20917765;28;20063;-66
2023/02/28 05:48:10;;;;;;;14.73;7.47;;;-4.40;99.90;;;;;;20916932;28;20037;-59
2023/02/28 05:58:13;;;;;;;17.27;8.45;;;-3.80;99.90;;;;;;20917510;28;20053;-66
2023/02/28 06:08:15;;;;;;;23.17;11.18;;;-3.20;99.90;;;;;;20912243;28;20056;-59
2023/02/28 06:18:16;;;;;;;20.38;9.88;;;-3.10;99.90;;;;;;20915225;28;20033;-60
2023/02/28 06:28:18;;;;;;;20.50;10.43;;;-3.20;99.90;;;;;;20913724;28;20025;-59
2023/02/28 06:38:20;;;;;;;21.40;11.27;;;-3.00;99.90;;;;;;20908321;28;20037;-60
2023/02/28 06:48:23;;;;;;;19.95;10.52;;;-2.70;99.90;;;;;;20894727;28;20041;-60
2023/02/28 06:58:25;;;;;;;22.27;10.75;;;-2.50;99.90;;;;;;20912265;28;20036;-60
2023/02/28 07:08:27;;;;;;;17.80;9.50;;;-2.20;99.90;;;;;;20910557;28;20367;-66
2023/02/28 07:18:29;;;;;;;17.35;9.05;;;-2.00;99.90;;;;;;20910102;28;20037;-67
2023/02/28 07:28:30;;;;;;;16.98;9.02;;;-1.80;99.90;;;;;;20907679;28;20454;-58
2023/02/28 07:38:37;;;;;;;14.45;7.90;;;-1.50;99.90;;;;;;20905098;28;20102;-67
2023/02/28 07:48:39;;;;;;;11.80;6.95;;;-1.10;99.90;;;;;;20907168;28;20029;-59
2023/02/28 07:58:40;;;;;;;13.95;8.13;;;-0.50;99.90;;;;;;20906972;28;20033;-67
2023/02/28 08:08:42;;;;;;;14.52;8.27;;;-0.20;99.90;;;;;;20905880;28;20103;-67
2023/02/28 08:18:44;;;;;;;8.02;4.97;;;-0.10;99.90;;;;;;20904315;28;20032;-67
2023/02/28 08:28:45;;;;;;;7.63;4.63;;;-0.10;99.90;;;;;;20904810;28;20105;-67
2023/02/28 08:38:47;;;;;;;11.18;6.18;;;0.40;99.90;;;;;;20904449;28;20036;-67
2023/02/28 08:48:53;;;;;;;8.70;5.32;;;0.90;99.90;;;;;;20903831;28;20040;-59
2023/02/28 08:58:56;;;;;;;10.13;6.30;;;1.20;99.90;;;;;;20907265;28;20029;-66
2023/02/28 09:08:59;;;;;;;14.90;7.28;;;1.30;99.90;;;;;;20919358;28;20048;-67
2023/02/28 09:19:01;;;;;;;12.40;7.68;;;1.40;99.90;;;;;;20919647;28;20033;-56
2023/02/28 09:29:03;;;;;;;12.30;7.65;;;1.60;99.90;;;;;;20917714;28;20037;-57
2023/02/28 09:39:06;;;;;;;12.65;7.60;;;2.10;99.90;;;;;;20916719;28;20518;-56
2023/02/28 09:49:23;;;;;;;11.02;7.28;;;2.60;99.90;;;;;;20915935;28;20036;-54
2023/02/28 09:59:40;;;;;;;12.52;7.47;;;3.30;99.90;;;;;;20916120;28;20236;-56
2023/02/28 10:09:41;;;;;;;11.32;7.00;;;4.10;99.90;;;;;;20913415;28;20498;-54
2023/02/28 10:19:49;;;;;;;11.70;7.50;;;4.00;99.90;;;;;;20913538;28;20384;-55
2023/02/28 10:29:53;;;;;;;13.27;7.72;;;4.00;99.90;;;;;;20913598;28;20033;-55
2023/02/28 10:39:56;;;;;;;11.68;8.00;;;3.80;99.90;;;;;;20912814;28;20036;-56
2023/02/28 10:49:57;;;;;;;13.00;8.60;;;4.50;99.90;;;;;;20912393;28;20110;-60
2023/02/28 11:00:33;;;;;;;13.50;8.25;;;5.20;99.90;;;;;;20911349;28;20025;-60
2023/02/28 11:10:35;;;;;;;13.13;8.07;;;5.20;99.90;;;;;;20903909;28;20037;-54
2023/02/28 11:20:38;;;;;;;11.05;7.43;;;5.60;99.90;;;;;;20909672;28;20390;-62
2023/02/28 11:30:41;;;;;;;13.68;8.88;;;5.90;99.90;;;;;;20865181;28;20450;-56
2023/02/28 11:40:55;;;;;;;12.10;8.18;;;5.10;99.90;;;;;;20907010;28;20102;-54
2023/02/28 11:51:08;;;;;;;12.85;8.05;;;5.40;99.90;;;;;;20907360;28;20059;-56
2023/02/28 12:01:31;;;;;;;11.02;7.82;;;6.40;99.90;;;;;;20908204;28;20036;-53
2023/02/28 12:11:38;;;;;;;14.10;8.57;;;6.50;99.10;;;;;;20905622;28;20090;-61
2023/02/28 12:22:26;;;;;;;13.93;8.63;;;6.50;99.90;;;;;;20905208;28;20083;-53
2023/02/28 12:32:43;;;;;;;13.15;8.57;;;7.00;99.90;;;;;;20731267;28;20088;-61
2023/02/28 12:42:52;;;;;;;12.07;8.20;;;7.40;99.90;;;;;;20730443;28;20046;-51
2023/02/28 12:53:14;;;;;;;11.40;8.10;;;6.80;99.10;;;;;;20713448;28;20104;-60
2023/02/28 13:03:19;;;;;;;14.00;8.90;;;6.40;99.30;;;;;;20828436;28;20059;-61
2023/02/28 13:13:29;;;;;;;13.60;9.50;;;6.50;99.90;;;;;;20902751;28;20045;-53
2023/02/28 13:23:57;;;;;;;14.00;8.73;;;7.00;99.90;;;;;;20902425;28;20120;-60
2023/02/28 13:34:06;;;;;;;16.73;9.57;;;7.00;99.80;;;;;;20900943;28;20441;-60
2023/02/28 13:44:13;;;;;;;13.63;9.38;;;6.80;99.90;;;;;;20904238;28;20083;-53
2023/02/28 13:54:35;;;;;;;15.02;9.77;;;6.50;99.40;;;;;;20915241;28;20037;-53
2023/02/28 14:04:49;;;;;;;16.90;9.68;;;6.00;99.90;;;;;;20914769;28;20025;-57
2023/02/28 14:14:51;;;;;;;15.85;10.25;;;5.20;99.90;;;;;;20914947;28;20048;-64
2023/02/28 14:25:01;;;;;;;18.55;10.23;;;4.60;99.90;;;;;;20912667;28;20091;-64
2023/02/28 14:35:16;;;;;;;15.10;9.70;;;3.80;99.90;;;;;;20913846;28;20098;-62
2023/02/28 14:45:22;;;;;;;17.67;9.90;;;3.60;99.90;;;;;;20912628;28;20090;-65
2023/02/28 14:55:28;;;;;;;14.88;9.48;;;3.40;99.90;;;;;;20910821;28;20099;-67
2023/02/28 15:05:34;;;;;;;15.25;9.80;;;3.40;99.90;;;;;;20911516;28;20040;-66
2023/02/28 15:15:42;;;;;;;15.75;9.38;;;3.20;99.90;;;;;;20910530;28;20500;-58
2023/02/28 15:25:44;;;;;;;19.30;10.18;;;2.40;99.90;;;;;;20891471;28;20082;-58
2023/02/28 15:35:47;;;;;;;18.70;10.07;;;2.00;99.90;;;;;;20908677;28;20079;-64
2023/02/28 15:46:00;;;;;;;17.13;10.75;;;1.90;99.90;;;;;;20908151;28;20433;-59
2023/02/28 15:56:06;;;;;;;17.42;10.48;;;1.70;99.90;;;;;;20906970;28;20048;-58
2023/02/28 16:06:20;;;;;;;18.80;10.30;;;1.50;99.90;;;;;;20905561;28;20028;-58
2023/02/28 16:16:24;;;;;;;20.90;10.18;;;1.20;99.90;;;;;;20906828;28;20092;-58
2023/02/28 16:26:27;;;;;;;18.95;10.50;;;0.90;99.90;;;;;;20904587;28;20037;-64
2023/02/28 16:36:29;;;;;;;21.30;11.35;;;0.50;99.90;;;;;;20904112;28;20033;-60
2023/02/28 16:46:34;;;;;;;20.17;10.65;;;0.10;99.90;;;;;;20902408;28;20062;-67
2023/02/28 16:56:37;;;;;;;21.30;10.52;;;-0.50;99.90;;;;;;20903376;28;20371;-60
2023/02/28 17:06:39;;;;;;;20.27;11.77;;;-1.00;99.90;;;;;;20903593;28;20052;-60
2023/02/28 17:16:41;;;;;;;21.38;11.27;;;-1.30;99.90;;;;;;20885417;28;20068;-60
2023/02/28 17:26:43;;;;;;;20.08;10.73;;;-1.40;99.90;;;;;;20916954;28;20036;-60
2023/02/28 17:36:46;;;;;;;21.52;12.02;;;-1.70;99.90;;;;;;20915562;28;20566;-60
2023/02/28 17:46:49;;;;;;;23.15;11.38;;;-1.80;99.90;;;;;;20917230;28;20029;-60
2023/02/28 17:56:50;;;;;;;19.23;10.50;;;-2.10;99.90;;;;;;20916768;28;20040;-60
2023/02/28 18:06:53;;;;;;;20.38;11.02;;;-2.30;99.90;;;;;;20917049;28;20371;-66
2023/02/28 18:16:56;;;;;;;21.85;10.98;;;-2.40;99.90;;;;;;20915440;28;20048;-67
2023/02/28 18:26:58;;;;;;;12.88;7.03;;;-2.40;99.90;;;;;;20914536;28;20460;-60
2023/02/28 18:36:59;;;;;;;11.75;6.35;;;-2.20;99.90;;;;;;20913404;28;20486;-66
2023/02/28 18:47:01;;;;;;;19.40;10.00;;;-1.70;99.90;;;;;;20913017;28;20037;-58
2023/02/28 18:57:03;;;;;;;19.83;10.80;;;-1.50;99.90;;;;;;20912064;28;20094;-59
2023/02/28 19:07:04;;;;;;;19.75;10.82;;;-1.80;99.90;;;;;;20911239;28;20103;-59
2023/02/28 19:17:06;;;;;;;23.25;11.13;;;-2.10;99.90;;;;;;20910350;28;20079;-66
2023/02/28 19:27:08;;;;;;;22.77;11.75;;;-2.40;99.90;;;;;;20909594;28;20037;-65
2023/02/28 19:37:10;;;;;;;22.40;10.85;;;-2.60;99.90;;;;;;20909966;28;20037;-60
2023/02/28 19:47:12;;;;;;;22.73;11.50;;;-2.60;99.90;;;;;;20907365;28;20032;-59
2023/02/28 19:57:15;;;;;;;25.75;10.35;;;-2.70;99.90;;;;;;20908161;28;20032;-59
2023/02/28 20:07:20;;;;;;;23.13;11.77;;;-2.80;99.90;;;;;;20906192;28;20463;-59
2023/02/28 20:17:23;;;;;;;24.30;11.95;;;-3.00;99.90;;;;;;20903857;28;20049;-59
2023/02/28 20:27:24;;;;;;;22.70;11.18;;;-2.90;99.90;;;;;;20902295;28;20032;-66
2023/02/28 20:37:27;;;;;;;26.15;12.10;;;-3.10;99.90;;;;;;20900388;28;20079;-66
2023/02/28 20:47:29;;;;;;;18.35;8.60;;;-3.20;99.90;;;;;;20884040;28;20036;-66
2023/02/28 20:57:31;;;;;;;12.45;6.13;;;-2.90;99.90;;;;;;20898973;28;20486;-60
2023/02/28 21:07:33;;;;;;;20.98;9.95;;;-2.30;99.90;;;;;;20898505;28;20048;-66
2023/02/28 21:17:35;;;;;;;24.60;11.30;;;-2.30;99.90;;;;;;20771123;28;1486377;-59
2023/02/28 21:27:36;;;;;;;10.15;4.18;;;-2.40;99.90;;;;;;20896137;28;20045;-59
2023/02/28 21:37:38;;;;;;;7.35;3.60;;;-2.30;99.90;;;;;;20884313;28;20486;-66
2023/02/28 21:47:40;;;;;;;7.05;3.78;;;-0.60;99.90;;;;;;20900330;28;20021;-60
2023/02/28 21:57:42;;;;;;;22.73;10.30;;;0.10;99.90;;;;;;20899525;28;20021;-67
2023/02/28 22:07:44;;;;;;;24.13;11.27;;;-1.00;99.90;;;;;;20906454;28;20032;-66
2023/02/28 22:17:46;;;;;;;22.85;11.60;;;-1.90;99.90;;;;;;20913986;28;20406;-59
2023/02/28 22:27:49;;;;;;;22.02;11.13;;;-2.60;99.90;;;;;;20914079;28;20112;-59
2023/02/28 22:37:50;;;;;;;27.45;12.48;;;-3.10;99.90;;;;;;20896776;28;20074;-66
2023/02/28 22:47:52;;;;;;;8.48;4.40;;;-3.30;99.90;;;;;;20912945;28;20059;-67
2023/02/28 22:57:53;;;;;;;7.35;3.90;;;-2.60;99.90;;;;;;20912242;28;20053;-66
2023/02/28 23:07:55;;;;;;;5.05;3.10;;;-1.90;99.90;;;;;;20911641;28;20056;-67
2023/02/28 23:17:57;;;;;;;4.63;2.67;;;-1.40;99.90;;;;;;20910769;28;20057;-59
2023/02/28 23:27:59;;;;;;;12.52;6.03;;;-1.10;99.90;;;;;;20909532;28;20075;-59
2023/02/28 23:38:01;;;;;;;22.67;11.70;;;-0.10;99.90;;;;;;20908945;28;20037;-66
2023/02/28 23:48:03;;;;;;;24.70;12.02;;;-0.80;99.90;;;;;;20908169;28;20037;-66
2023/02/28 23:58:05;;;;;;;8.85;4.45;;;-1.70;99.90;;;;;;20907408;28;20528;-66
